createdAt,value
2017-12-06T00:01:37.956Z,12.27
2017-12-06T00:04:06.244Z,13.07
2017-12-06T00:06:33.752Z,13.03
2017-12-06T00:09:01.270Z,12.53
2017-12-06T00:11:28.783Z,12.90
2017-12-06T00:14:02.768Z,12.50
2017-12-06T00:16:30.250Z,12.23
2017-12-06T00:18:57.874Z,12.40
2017-12-06T00:21:25.433Z,11.83
2017-12-06T00:23:52.913Z,12.83
2017-12-06T00:26:20.397Z,11.77
2017-12-06T00:28:47.903Z,11.47
2017-12-06T00:31:25.021Z,11.50
2017-12-06T00:33:53.330Z,11.37
2017-12-06T00:36:20.897Z,11.37
2017-12-06T00:38:49.222Z,10.93
2017-12-06T00:41:16.836Z,10.87
2017-12-06T00:43:44.336Z,10.40
2017-12-06T00:46:11.936Z,11.20
2017-12-06T00:48:39.415Z,10.83
2017-12-06T00:51:07.676Z,11.30
2017-12-06T00:53:35.915Z,11.37
2017-12-06T00:56:03.548Z,10.60
2017-12-06T00:58:31.027Z,10.93
2017-12-06T01:00:58.615Z,10.90
2017-12-06T01:03:26.240Z,11.83
2017-12-06T01:05:53.722Z,12.40
2017-12-06T01:08:21.203Z,12.60
2017-12-06T01:10:48.767Z,13.30
2017-12-06T01:13:17.018Z,13.67
2017-12-06T01:15:44.504Z,13.43
2017-12-06T01:18:12.770Z,13.60
2017-12-06T01:20:40.268Z,13.73
2017-12-06T01:23:07.745Z,13.43
2017-12-06T01:25:35.287Z,13.77
2017-12-06T01:28:02.891Z,14.80
2017-12-06T01:30:30.424Z,14.40
2017-12-06T01:32:57.927Z,14.70
2017-12-06T01:35:26.218Z,14.13
2017-12-06T01:37:54.468Z,14.53
2017-12-06T01:40:22.055Z,14.27
2017-12-06T01:42:50.309Z,13.77
2017-12-06T01:45:17.880Z,15.40
2017-12-06T01:47:46.151Z,13.77
2017-12-06T01:50:14.402Z,14.67
2017-12-06T01:52:41.884Z,14.83
2017-12-06T01:55:10.176Z,13.77
2017-12-06T01:57:38.426Z,14.83
2017-12-06T02:00:06.017Z,14.17
2017-12-06T02:02:34.283Z,13.60
2017-12-06T02:05:02.571Z,14.17
2017-12-06T02:07:30.057Z,14.03
2017-12-06T02:09:57.603Z,14.57
2017-12-06T02:12:25.133Z,14.37
2017-12-06T02:14:52.692Z,15.27
2017-12-06T02:17:20.955Z,14.80
2017-12-06T02:19:48.441Z,14.90
2017-12-06T02:22:15.973Z,15.27
2017-12-06T02:24:43.576Z,14.40
2017-12-06T02:27:11.043Z,14.00
2017-12-06T02:29:38.537Z,15.07
2017-12-06T02:32:06.041Z,14.17
2017-12-06T02:34:33.612Z,14.17
2017-12-06T02:37:01.159Z,13.93
2017-12-06T02:39:40.723Z,14.17
2017-12-06T02:42:14.197Z,13.37
2017-12-06T02:44:53.825Z,13.60
2017-12-06T02:47:22.091Z,13.70
2017-12-06T02:49:50.337Z,14.03
2017-12-06T02:52:17.931Z,13.33
2017-12-06T02:54:46.179Z,14.13
2017-12-06T02:57:13.670Z,15.27
2017-12-06T02:59:41.984Z,13.07
2017-12-06T03:02:09.506Z,14.83
2017-12-06T03:04:37.784Z,14.67
2017-12-06T03:07:06.691Z,14.97
2017-12-06T03:09:34.182Z,15.73
2017-12-06T03:12:01.751Z,15.33
2017-12-06T03:14:29.270Z,15.63
2017-12-06T03:16:56.764Z,15.37
2017-12-06T03:19:24.249Z,16.00
2017-12-06T03:21:51.820Z,15.90
2017-12-06T03:24:20.070Z,15.60
2017-12-06T03:26:47.575Z,15.60
2017-12-06T03:29:15.099Z,14.77
2017-12-06T03:31:43.362Z,15.50
2017-12-06T03:34:10.972Z,16.73
2017-12-06T03:36:38.482Z,16.40
2017-12-06T03:39:05.963Z,15.20
2017-12-06T03:41:34.244Z,15.43
2017-12-06T03:44:02.512Z,15.53
2017-12-06T03:46:30.767Z,15.67
2017-12-06T03:48:58.255Z,15.30
2017-12-06T03:51:26.636Z,15.93
2017-12-06T03:53:54.887Z,15.53
2017-12-06T03:56:22.395Z,15.40
2017-12-06T03:58:49.899Z,15.43
2017-12-06T04:01:17.414Z,15.10
2017-12-06T04:03:44.896Z,15.73
2017-12-06T04:06:12.500Z,14.53
2017-12-06T04:08:40.759Z,14.60
2017-12-06T04:11:08.239Z,14.97
2017-12-06T04:13:36.527Z,15.30
2017-12-06T04:16:04.015Z,14.87
2017-12-06T04:18:31.530Z,15.03
2017-12-06T04:20:59.809Z,14.97
2017-12-06T04:23:28.606Z,15.53
2017-12-06T04:25:56.099Z,14.37
2017-12-06T04:28:23.614Z,15.40
2017-12-06T04:30:51.892Z,14.87
2017-12-06T04:33:19.451Z,14.50
2017-12-06T04:35:46.959Z,14.50
2017-12-06T04:38:14.439Z,14.33
2017-12-06T04:40:41.931Z,15.27
2017-12-06T04:43:09.432Z,14.70
2017-12-06T04:45:36.939Z,14.80
2017-12-06T04:48:05.213Z,14.10
2017-12-06T04:50:33.495Z,14.67
2017-12-06T04:53:00.995Z,14.63
2017-12-06T04:55:28.513Z,15.27
2017-12-06T04:57:56.062Z,15.13
2017-12-06T05:00:24.341Z,14.47
2017-12-06T05:02:52.587Z,15.93
2017-12-06T05:05:20.644Z,14.50
2017-12-06T05:07:48.145Z,14.83
2017-12-06T05:10:16.408Z,14.73
2017-12-06T05:12:43.917Z,14.50
2017-12-06T05:15:11.436Z,14.30
2017-12-06T05:17:39.678Z,14.87
2017-12-06T05:20:07.272Z,13.57
2017-12-06T05:22:35.532Z,14.23
2017-12-06T05:25:03.145Z,15.83
2017-12-06T05:27:30.670Z,15.40
2017-12-06T05:29:58.939Z,15.33
2017-12-06T05:32:27.221Z,14.97
2017-12-06T05:34:55.498Z,15.13
2017-12-06T05:37:23.831Z,13.67
2017-12-06T05:39:51.315Z,13.47
2017-12-06T05:42:18.824Z,13.57
2017-12-06T05:44:46.372Z,14.53
2017-12-06T05:47:13.916Z,14.67
2017-12-06T05:49:42.180Z,14.17
2017-12-06T05:52:11.153Z,13.87
2017-12-06T05:54:38.739Z,13.57
2017-12-06T05:57:07.010Z,13.33
2017-12-06T05:59:35.351Z,14.73
2017-12-06T06:02:02.838Z,13.67
2017-12-06T06:04:30.352Z,13.63
2017-12-06T06:06:57.830Z,13.80
2017-12-06T06:09:25.436Z,13.13
2017-12-06T06:11:52.935Z,13.43
2017-12-06T06:14:20.479Z,12.20
2017-12-06T06:16:47.960Z,13.07
2017-12-06T06:19:15.566Z,12.57
2017-12-06T06:21:43.807Z,12.57
2017-12-06T06:24:11.506Z,12.50
2017-12-06T06:26:39.779Z,12.03
2017-12-06T06:29:08.033Z,13.13
2017-12-06T06:31:35.507Z,13.27
2017-12-06T06:34:03.775Z,12.47
2017-12-06T06:36:31.259Z,13.20
2017-12-06T06:38:58.740Z,13.30
2017-12-06T06:41:26.267Z,13.47
2017-12-06T06:43:54.512Z,12.63
2017-12-06T06:46:22.094Z,13.57
2017-12-06T06:48:50.407Z,14.10
2017-12-06T06:51:17.930Z,14.10
2017-12-06T06:53:46.187Z,14.07
2017-12-06T06:56:13.702Z,14.03
2017-12-06T06:58:41.179Z,14.33
2017-12-06T07:01:08.683Z,14.30
2017-12-06T07:03:36.997Z,15.47
2017-12-06T07:06:04.482Z,13.87
2017-12-06T07:08:31.963Z,14.33
2017-12-06T07:10:59.458Z,13.60
2017-12-06T07:13:26.944Z,14.93
2017-12-06T07:15:54.427Z,14.10
2017-12-06T07:18:25.515Z,13.73
2017-12-06T07:20:53.003Z,14.87
2017-12-06T07:23:20.512Z,14.23
2017-12-06T07:25:48.840Z,13.97
2017-12-06T07:28:16.327Z,13.93
2017-12-06T07:30:43.828Z,13.93
2017-12-06T07:33:11.331Z,14.27
2017-12-06T07:35:38.826Z,13.53
2017-12-06T07:38:07.071Z,13.47
2017-12-06T07:40:34.718Z,13.43
2017-12-06T07:43:02.220Z,13.40
2017-12-06T07:45:30.467Z,12.93
2017-12-06T07:47:58.186Z,13.37
2017-12-06T07:50:25.711Z,13.70
2017-12-06T07:52:53.954Z,13.27
2017-12-06T07:55:22.220Z,13.30
2017-12-06T07:57:49.878Z,13.37
2017-12-06T08:00:17.390Z,14.37
2017-12-06T08:02:45.766Z,12.83
2017-12-06T08:05:14.024Z,12.40
2017-12-06T08:07:41.615Z,13.10
2017-12-06T08:10:09.116Z,13.10
2017-12-06T08:12:36.595Z,12.60
2017-12-06T08:15:04.182Z,12.07
2017-12-06T08:17:32.463Z,11.90
2017-12-06T08:20:00.711Z,12.73
2017-12-06T08:22:28.301Z,12.50
2017-12-06T08:24:55.852Z,11.50
2017-12-06T08:27:24.102Z,12.27
2017-12-06T08:29:51.594Z,11.67
2017-12-06T08:32:19.112Z,11.60
2017-12-06T08:34:46.716Z,13.00
2017-12-06T08:37:14.279Z,11.70
2017-12-06T08:39:42.679Z,12.53
2017-12-06T08:42:10.159Z,12.60
2017-12-06T08:44:37.640Z,11.63
2017-12-06T08:47:05.142Z,11.97
2017-12-06T08:49:32.623Z,12.20
2017-12-06T08:52:00.147Z,12.43
2017-12-06T08:54:27.670Z,11.27
2017-12-06T08:56:55.258Z,11.70
2017-12-06T08:59:23.520Z,12.03
2017-12-06T09:01:51.789Z,12.53
2017-12-06T09:04:19.365Z,11.27
2017-12-06T09:06:47.613Z,11.20
2017-12-06T09:09:15.111Z,11.07
2017-12-06T09:11:42.595Z,12.00
2017-12-06T09:14:10.077Z,12.37
2017-12-06T09:16:37.673Z,12.30
2017-12-06T09:19:05.172Z,12.17
2017-12-06T09:21:32.688Z,12.47
2017-12-06T09:24:01.866Z,11.80
2017-12-06T09:26:29.451Z,12.07
2017-12-06T09:28:57.728Z,11.90
2017-12-06T09:31:26.100Z,11.83
2017-12-06T09:33:54.363Z,11.57
2017-12-06T09:36:21.911Z,11.93
2017-12-06T09:38:49.499Z,11.90
2017-12-06T09:41:17.803Z,12.40
2017-12-06T09:43:45.297Z,12.53
2017-12-06T09:46:12.804Z,12.00
2017-12-06T09:48:40.355Z,12.13
2017-12-06T09:51:08.622Z,12.67
2017-12-06T09:53:36.900Z,12.63
2017-12-06T09:56:05.163Z,12.10
2017-12-06T09:58:32.753Z,12.17
2017-12-06T10:01:00.324Z,12.40
2017-12-06T10:03:27.888Z,12.60
2017-12-06T10:05:55.423Z,11.90
2017-12-06T10:08:22.979Z,12.43
2017-12-06T10:10:51.306Z,12.37
2017-12-06T10:13:18.920Z,12.13
2017-12-06T10:15:46.427Z,12.60
2017-12-06T10:18:14.066Z,13.47
2017-12-06T10:20:41.551Z,13.10
2017-12-06T10:23:09.060Z,13.20
2017-12-06T10:25:37.362Z,13.73
2017-12-06T10:28:04.864Z,12.87
2017-12-06T10:30:32.454Z,13.17
2017-12-06T10:33:00.699Z,12.50
2017-12-06T10:35:28.188Z,12.80
2017-12-06T10:37:55.748Z,13.70
2017-12-06T10:40:23.434Z,13.80
2017-12-06T10:42:50.961Z,13.50
2017-12-06T10:45:18.552Z,13.43
2017-12-06T10:47:46.080Z,13.30
2017-12-06T10:50:14.332Z,13.50
2017-12-06T10:52:41.843Z,13.67
2017-12-06T10:55:09.394Z,14.13
2017-12-06T10:57:36.931Z,13.77
2017-12-06T11:00:05.207Z,14.40
2017-12-06T11:02:33.464Z,13.13
2017-12-06T11:05:00.952Z,13.23
2017-12-06T11:07:29.221Z,13.93
2017-12-06T11:09:57.499Z,14.90
2017-12-06T11:12:25.748Z,13.93
2017-12-06T11:14:53.256Z,13.67
2017-12-06T11:17:20.801Z,14.00
2017-12-06T11:19:49.077Z,14.13
2017-12-06T11:22:18.174Z,15.13
2017-12-06T11:24:45.719Z,14.50
2017-12-06T11:27:13.983Z,14.63
2017-12-06T11:29:41.482Z,15.13
2017-12-06T11:32:08.958Z,14.53
2017-12-06T11:34:36.435Z,15.27
2017-12-06T11:37:04.014Z,14.93
2017-12-06T11:39:31.496Z,14.23
2017-12-06T11:41:59.743Z,14.30
2017-12-06T11:44:27.285Z,14.37
2017-12-06T11:46:54.781Z,14.50
2017-12-06T11:49:23.035Z,14.97
2017-12-06T11:51:50.539Z,14.57
2017-12-06T11:54:19.004Z,14.47
2017-12-06T11:56:47.250Z,14.80
2017-12-06T11:59:14.764Z,14.17
2017-12-06T12:01:42.296Z,14.90
2017-12-06T12:04:10.541Z,15.23
2017-12-06T12:06:38.038Z,14.40
2017-12-06T12:09:05.587Z,15.30
2017-12-06T12:11:33.871Z,15.17
2017-12-06T12:14:02.269Z,14.73
2017-12-06T12:16:29.804Z,14.33
2017-12-06T12:18:58.054Z,14.80
2017-12-06T12:21:25.647Z,14.30
2017-12-06T12:23:53.210Z,14.83
2017-12-06T12:26:20.757Z,14.53
2017-12-06T12:28:49.040Z,14.10
2017-12-06T12:31:16.608Z,14.20
2017-12-06T12:33:44.104Z,14.77
2017-12-06T12:36:11.617Z,14.77
2017-12-06T12:38:39.099Z,14.43
2017-12-06T12:41:06.627Z,14.07
2017-12-06T12:43:35.004Z,14.50
2017-12-06T12:46:03.312Z,14.00
2017-12-06T12:48:30.812Z,13.67
2017-12-06T12:50:58.312Z,14.30
2017-12-06T12:53:25.800Z,13.77
2017-12-06T12:55:53.291Z,14.87
2017-12-06T12:58:20.792Z,14.43
2017-12-06T13:00:51.129Z,14.50
2017-12-06T13:03:18.668Z,14.83
2017-12-06T13:05:46.177Z,14.87
2017-12-06T13:08:13.672Z,14.47
2017-12-06T13:10:41.935Z,14.20
2017-12-06T13:13:10.240Z,14.80
2017-12-06T13:15:37.734Z,14.97
2017-12-06T13:18:05.206Z,15.00
2017-12-06T13:20:32.692Z,15.50
2017-12-06T13:23:00.973Z,14.07
2017-12-06T13:25:29.228Z,14.73
2017-12-06T13:27:56.728Z,14.20
2017-12-06T13:30:24.211Z,14.40
2017-12-06T13:32:51.733Z,15.63
2017-12-06T13:35:19.275Z,14.90
2017-12-06T13:37:47.554Z,14.93
2017-12-06T13:40:16.584Z,14.20
2017-12-06T13:42:44.107Z,14.97
2017-12-06T13:45:12.396Z,14.80
2017-12-06T13:47:39.880Z,14.77
2017-12-06T13:50:07.403Z,14.90
2017-12-06T13:52:35.656Z,13.73
2017-12-06T13:55:03.160Z,14.83
2017-12-06T13:57:30.670Z,14.83
2017-12-06T13:59:58.165Z,15.43
2017-12-06T14:02:25.643Z,14.83
2017-12-06T14:04:53.148Z,14.53
2017-12-06T14:07:20.679Z,14.20
2017-12-06T14:09:48.187Z,15.43
2017-12-06T14:12:16.470Z,15.07
2017-12-06T14:14:45.504Z,14.47
2017-12-06T14:17:12.995Z,14.90
2017-12-06T14:19:40.586Z,14.73
2017-12-06T14:22:08.855Z,14.57
2017-12-06T14:24:37.138Z,14.17
2017-12-06T14:27:04.695Z,14.63
2017-12-06T14:29:32.180Z,13.97
2017-12-06T14:31:59.673Z,14.07
2017-12-06T14:34:27.187Z,14.33
2017-12-06T14:36:54.719Z,14.30
2017-12-06T14:39:23.013Z,14.87
2017-12-06T14:41:51.255Z,14.13
2017-12-06T14:44:18.741Z,13.93
2017-12-06T14:46:46.219Z,14.07
2017-12-06T14:49:13.719Z,15.00
2017-12-06T14:51:41.196Z,15.13
2017-12-06T14:54:09.447Z,14.80
2017-12-06T14:56:36.951Z,15.30
2017-12-06T14:59:04.506Z,15.03
2017-12-06T15:01:32.804Z,15.53
2017-12-06T15:04:00.331Z,14.67
2017-12-06T15:06:28.595Z,14.70
2017-12-06T15:08:56.177Z,14.43
2017-12-06T15:11:24.484Z,14.80
2017-12-06T15:13:51.970Z,15.67
2017-12-06T15:16:19.443Z,14.03
2017-12-06T15:18:47.720Z,14.50
2017-12-06T15:21:15.302Z,15.37
2017-12-06T15:23:43.560Z,15.27
2017-12-06T15:26:11.133Z,14.63
2017-12-06T15:28:39.375Z,14.90
2017-12-06T15:31:06.862Z,13.97
2017-12-06T15:33:35.139Z,14.73
2017-12-06T15:36:02.752Z,15.03
2017-12-06T15:38:30.256Z,14.67
2017-12-06T15:40:58.569Z,15.17
2017-12-06T15:43:26.140Z,15.37
2017-12-06T15:45:53.747Z,14.63
2017-12-06T15:48:21.254Z,13.87
2017-12-06T15:50:48.738Z,15.30
2017-12-06T15:58:58.080Z,15.27
2017-12-06T16:01:25.602Z,14.50
2017-12-06T16:03:53.864Z,14.97
2017-12-06T16:06:21.381Z,14.43
2017-12-06T16:08:48.936Z,14.90
2017-12-06T16:11:16.442Z,14.33
2017-12-06T16:13:43.928Z,15.47
2017-12-06T16:16:12.253Z,15.00
2017-12-06T16:18:39.755Z,14.53
2017-12-06T16:21:08.050Z,14.53
2017-12-06T16:23:35.534Z,14.03
2017-12-06T16:26:03.080Z,14.77
2017-12-06T16:28:30.576Z,14.47
2017-12-06T16:30:58.671Z,13.90
2017-12-06T16:33:26.949Z,15.83
2017-12-06T16:36:07.141Z,15.57
2017-12-06T16:38:34.637Z,14.27
2017-12-06T16:41:02.166Z,14.43
2017-12-06T16:43:29.666Z,14.40
2017-12-06T16:45:57.180Z,13.40
2017-12-06T16:48:24.673Z,14.03
2017-12-06T16:50:52.179Z,14.27
2017-12-06T16:53:19.669Z,14.73
2017-12-06T16:55:47.174Z,14.40
2017-12-06T16:58:15.460Z,14.50
2017-12-06T17:00:42.966Z,14.50
2017-12-06T17:03:10.472Z,13.70
2017-12-06T17:05:38.746Z,14.73
2017-12-06T17:08:07.021Z,15.17
2017-12-06T17:10:35.292Z,13.57
2017-12-06T17:13:03.628Z,14.50
2017-12-06T17:15:31.191Z,13.43
2017-12-06T17:17:58.643Z,14.67
2017-12-06T17:20:26.142Z,13.93
2017-12-06T17:22:53.653Z,14.67
2017-12-06T17:25:24.427Z,14.83
2017-12-06T17:27:51.952Z,13.73
2017-12-06T17:30:31.476Z,15.40
2017-12-06T17:32:58.978Z,14.47
2017-12-06T17:35:26.482Z,14.87
2017-12-06T17:37:54.300Z,14.27
2017-12-06T17:40:21.792Z,15.33
2017-12-06T17:42:50.077Z,15.03
2017-12-06T17:45:17.572Z,14.97
2017-12-06T17:47:45.077Z,14.40
2017-12-06T17:50:24.158Z,15.00
2017-12-06T17:52:52.197Z,15.27
2017-12-06T17:55:19.912Z,15.17
2017-12-06T17:57:47.431Z,14.53
2017-12-06T18:00:14.962Z,14.40
2017-12-06T18:02:42.483Z,14.47
2017-12-06T18:05:13.717Z,14.80
2017-12-06T18:07:41.505Z,14.17
2017-12-06T18:10:09.081Z,14.90
2017-12-06T18:12:37.751Z,14.80
2017-12-06T18:15:05.265Z,14.33
2017-12-06T18:17:32.787Z,15.97
2017-12-06T18:20:00.305Z,15.40
2017-12-06T18:22:27.802Z,14.73
2017-12-06T18:24:56.074Z,14.33
2017-12-06T18:27:24.352Z,14.43
2017-12-06T18:29:52.630Z,14.10
2017-12-06T18:32:20.929Z,14.50
2017-12-06T18:34:48.416Z,14.30
2017-12-06T18:37:15.942Z,13.77
2017-12-06T18:39:44.560Z,14.50
2017-12-06T18:42:12.060Z,14.40
2017-12-06T18:44:39.545Z,13.57
2017-12-06T18:47:07.046Z,13.83
2017-12-06T18:49:34.532Z,13.23
2017-12-06T18:52:02.051Z,13.87
2017-12-06T18:54:29.588Z,12.47
2017-12-06T18:56:57.154Z,12.80
2017-12-06T18:59:24.641Z,13.00
2017-12-06T19:01:52.134Z,12.57
2017-12-06T19:04:20.402Z,12.80
2017-12-06T19:06:47.978Z,12.57
2017-12-06T19:09:16.264Z,12.67
2017-12-06T19:11:43.760Z,12.83
2017-12-06T19:14:12.256Z,15.13
2017-12-06T19:16:39.793Z,13.10
2017-12-06T19:19:07.284Z,13.20
2017-12-06T19:21:34.876Z,12.87
2017-12-06T19:24:03.142Z,12.70
2017-12-06T19:26:31.459Z,12.47
2017-12-06T19:28:58.956Z,12.10
2017-12-06T19:31:26.467Z,13.57
2017-12-06T19:33:53.956Z,11.97
2017-12-06T19:36:21.457Z,13.20
2017-12-06T19:38:49.702Z,12.23
2017-12-06T19:41:17.203Z,12.53
2017-12-06T19:43:44.749Z,11.97
2017-12-06T19:46:13.024Z,12.80
2017-12-06T19:48:41.315Z,12.77
2017-12-06T19:51:08.815Z,12.57
2017-12-06T19:53:37.507Z,12.43
2017-12-06T19:56:05.021Z,12.33
2017-12-06T19:58:32.512Z,11.87
2017-12-06T20:01:00.012Z,12.37
2017-12-06T20:03:28.331Z,12.87
2017-12-06T20:05:55.920Z,12.87
2017-12-06T20:08:24.236Z,11.87
2017-12-06T20:10:52.494Z,12.57
2017-12-06T20:13:19.994Z,12.50
2017-12-06T20:15:47.505Z,12.03
2017-12-06T20:18:14.995Z,12.47
2017-12-06T20:20:42.576Z,12.47
2017-12-06T20:23:10.120Z,12.00
2017-12-06T20:25:37.624Z,12.93
2017-12-06T20:28:05.192Z,12.30
2017-12-06T20:30:32.695Z,13.03
2017-12-06T20:33:00.181Z,12.47
2017-12-06T20:35:27.687Z,12.23
2017-12-06T20:37:55.936Z,12.73
2017-12-06T20:40:23.429Z,13.90
2017-12-06T20:42:51.697Z,11.47
2017-12-06T20:45:20.016Z,10.97
2017-12-06T20:47:47.549Z,11.50
2017-12-06T20:50:15.827Z,11.90
2017-12-06T20:52:44.094Z,11.10
2017-12-06T20:55:12.390Z,11.70
2017-12-06T20:57:40.721Z,11.90
2017-12-06T21:00:08.216Z,11.93
2017-12-06T21:02:36.494Z,11.53
2017-12-06T21:05:04.771Z,11.60
2017-12-06T21:07:32.264Z,11.90
2017-12-06T21:09:59.752Z,12.03
2017-12-06T21:12:27.252Z,11.23
2017-12-06T21:14:54.740Z,11.97
2017-12-06T21:17:22.268Z,10.80
2017-12-06T21:19:49.758Z,10.97
2017-12-06T21:22:17.257Z,11.33
2017-12-06T21:24:44.829Z,11.47
2017-12-06T21:27:13.098Z,11.10
2017-12-06T21:29:41.401Z,10.80
2017-12-06T21:32:08.904Z,10.27
2017-12-06T21:34:37.224Z,11.37
2017-12-06T21:37:05.524Z,11.13
2017-12-06T21:39:33.121Z,11.40
2017-12-06T21:42:00.634Z,11.13
2017-12-06T21:44:28.126Z,11.27
2017-12-06T21:46:55.642Z,11.20
2017-12-06T21:49:23.899Z,11.00
2017-12-06T21:51:52.183Z,11.43
2017-12-06T21:54:20.456Z,11.40
2017-12-06T21:56:49.573Z,13.23
2017-12-06T21:59:17.121Z,10.97
2017-12-06T22:01:45.483Z,11.70
2017-12-06T22:04:13.775Z,11.47
2017-12-06T22:06:42.026Z,11.10
2017-12-06T22:09:09.613Z,11.30
2017-12-06T22:11:37.890Z,10.83
2017-12-06T22:14:06.157Z,11.37
2017-12-06T22:16:34.413Z,11.03
2017-12-06T22:19:02.024Z,11.20
2017-12-06T22:21:29.520Z,10.80
2017-12-06T22:23:57.007Z,10.87
2017-12-06T22:26:25.386Z,11.90
2017-12-06T22:28:53.651Z,10.93
2017-12-06T22:31:21.245Z,10.30
2017-12-06T22:33:48.793Z,11.07
2017-12-06T22:36:16.297Z,11.07
2017-12-06T22:38:43.791Z,10.80
2017-12-06T22:41:11.289Z,10.13
2017-12-06T22:43:38.825Z,10.67
2017-12-06T22:46:07.097Z,10.63
2017-12-06T22:48:35.401Z,10.50
2017-12-06T22:51:02.897Z,11.17
2017-12-06T22:53:30.496Z,11.00
2017-12-06T22:55:59.622Z,11.13
2017-12-06T22:58:27.114Z,11.20
2017-12-06T23:00:54.606Z,10.90
2017-12-06T23:03:22.888Z,11.33
2017-12-06T23:05:50.434Z,10.43
2017-12-06T23:08:17.924Z,10.63
2017-12-06T23:10:45.436Z,10.77
2017-12-06T23:13:12.941Z,10.97
2017-12-06T23:15:40.444Z,10.90
2017-12-06T23:18:08.031Z,10.37
2017-12-06T23:20:36.319Z,11.60
2017-12-06T23:23:04.697Z,10.77
2017-12-06T23:25:32.257Z,10.43
2017-12-06T23:27:59.813Z,11.30
2017-12-06T23:30:28.077Z,10.53
2017-12-06T23:32:56.323Z,10.53
2017-12-06T23:35:23.831Z,10.37
2017-12-06T23:37:51.383Z,10.80
2017-12-06T23:40:18.880Z,10.73
2017-12-06T23:42:46.367Z,10.63
2017-12-06T23:45:13.969Z,10.23
2017-12-06T23:47:41.452Z,10.57
2017-12-06T23:50:08.967Z,10.80
2017-12-06T23:52:37.249Z,10.97
2017-12-06T23:55:05.626Z,10.40
2017-12-06T23:57:33.930Z,11.67
